Allentown, PA

18:01 EDT dnia 20-wrzesień-2014 (GMT -0400)
South Filmore Street | Change Station
CLOSE
Current Station
Stacja PWS
Location: Allentown, PA
n.p.m.: 341 ft
Najbliższa stacja pogodowa

Wysokość 341 ft 40.59 °N, 75.45 °W | Updated 2 minutes ago

Clear
pogodnie
75.2 ° F
Odczuwalna 77 ° F
Płn.
8.9
Wiatr zmienny Wiatr od WsPdWs

Dziś
Wysoka -- | Niska -- ° F
--% Prawdop. opadów
Wczoraj
Wysoka -- | Niska -- ° F
Precip. -- cali
6:47 AM 7:02 PM
Zmniejszający się sierp Księżyca, 10% visible
Ciśnienie 30.11 cali
Widzialność 10.0 mil
chmury pogodnie
Odczucie gorąca 77 ° F
Punkt rosy 62 ° F
Wilgotność 64%
Opady deszczu 0.00 cali
grubość pokrywy śnieżnej Niedostępne.
UV 1 z 12
Pyłki 2.90 z 12
Ozon Dobre
PM2.5 Dobre
Flu Activity Niedostępne.
METAR KXLL 202135Z AUTO 16010KT 10SM CLR 25/13 A3011 RMK AO2

More Conditions Fewer Conditions

Ciśnienie 30.11 cali
Widzialność 10.0 mil
chmury pogodnie
Odczucie gorąca 77 ° F
Punkt rosy 62 ° F
Wilgotność 64%
Opady deszczu 0.00 cali
grubość pokrywy śnieżnej Niedostępne.
UV 1 z 12
Pyłki 2.90 z 12
Ozon Dobre
PM2.5 Dobre
Flu Activity Niedostępne.
METAR KXLL 202135Z AUTO 16010KT 10SM CLR 25/13 A3011 RMK AO2

More Conditions Fewer Conditions

10-Day Weather Forecast

Almanac

Astronomia

Sep. 20, 2014 Wschód Zachów
Aktualny czas 06:47 EDT 19:02 EDT
Zmierzch cywilny 06:20 EDT 19:29 EDT
Zmierzch żeglarski 05:48 EDT 20:01 EDT
świt/zmierzch astronomiczny 05:15 EDT 20:34 EDT
Księżyc 03:23 EDT 17:05 EDT
całkowite oświetlenie 13h 09m
Długość dnia
12h 15m
Tomorrow will be 2m 40s shorter.
Zmniejszający się sierp Księżyca, 10% of the Moon is Illuminated
Dziś
Zmniejszający się sierp Księżyca
Wrzesień 24
Nowy
Październik 1
Pierwsza kwadra
Październik 8
Pełnia Księżyca
Październik 15
Ostatnia kwadra

Dzisiejsze ekstrema

State Highs State Lows

Community

WunderPhotos

Upload Photos

1,754,966 zdjęcia zostały przesłane!

WunderBlogs® & News

Nearby

Jakość powietrza

  Jakość powietrza czynnik AQ Zanieczyszczenie
Wczoraj Dobre
PM2.5
Wczoraj Dobre
OZONE
Obecnie Dobre
PM2.5
Obecnie Dobre
OZONE
Sobota Umiarkowany
PM2.5
Niedziela Umiarkowany
PM2.5
Poniedziałek Dobre
PM2.5
Wtorek Dobre
PM2.5

Głębokość pokrywy śnieżnej

Station Depth n.p.m.
Brak zgłoszeń świeżych opadów śniegu.

Aktywność sejsmiczna

Miejscowość Distance Mag. Time & Date
No recent earthquake activity has been reported nearby.
Minimum magnitude displayed is 2.5.

Temperatury wody na wybrzeżu

Miejsce Temperatura
Nie znaleziono stacji

Najbliższa stacja pogodowa